sensor_id;sensor_type;location;lat;lon;timestamp;P1;durP1;ratioP1;P2;durP2;ratioP2
11823;SDS011;5969;50.780;7.726;2023-05-10T00:01:32;1.40;;;1.30;;
11823;SDS011;5969;50.780;7.726;2023-05-10T00:03:59;1.60;;;1.50;;
11823;SDS011;5969;50.780;7.726;2023-05-10T00:06:25;1.88;;;1.50;;
11823;SDS011;5969;50.780;7.726;2023-05-10T00:08:52;1.40;;;1.30;;
11823;SDS011;5969;50.780;7.726;2023-05-10T00:11:19;1.60;;;1.50;;
11823;SDS011;5969;50.780;7.726;2023-05-10T00:13:47;2.33;;;1.27;;
11823;SDS011;5969;50.780;7.726;2023-05-10T00:16:14;1.60;;;1.50;;
11823;SDS011;5969;50.780;7.726;2023-05-10T00:18:41;1.80;;;1.35;;
11823;SDS011;5969;50.780;7.726;2023-05-10T00:21:08;1.48;;;1.38;;
11823;SDS011;5969;50.780;7.726;2023-05-10T00:23:34;1.85;;;1.75;;
11823;SDS011;5969;50.780;7.726;2023-05-10T00:26:01;2.25;;;1.30;;
11823;SDS011;5969;50.780;7.726;2023-05-10T00:28:28;1.73;;;1.17;;
11823;SDS011;5969;50.780;7.726;2023-05-10T00:30:56;2.28;;;1.30;;
11823;SDS011;5969;50.780;7.726;2023-05-10T00:33:23;1.35;;;1.13;;
11823;SDS011;5969;50.780;7.726;2023-05-10T00:35:49;1.85;;;1.10;;
11823;SDS011;5969;50.780;7.726;2023-05-10T00:38:16;0.98;;;0.98;;
11823;SDS011;5969;50.780;7.726;2023-05-10T00:40:43;1.20;;;1.10;;
11823;SDS011;5969;50.780;7.726;2023-05-10T00:43:10;1.00;;;1.00;;
11823;SDS011;5969;50.780;7.726;2023-05-10T00:45:37;1.40;;;1.30;;
11823;SDS011;5969;50.780;7.726;2023-05-10T00:48:07;1.55;;;1.45;;
11823;SDS011;5969;50.780;7.726;2023-05-10T00:50:35;2.28;;;1.48;;
11823;SDS011;5969;50.780;7.726;2023-05-10T00:53:01;1.75;;;1.63;;
11823;SDS011;5969;50.780;7.726;2023-05-10T00:55:29;2.22;;;1.75;;
11823;SDS011;5969;50.780;7.726;2023-05-10T00:57:56;2.13;;;1.77;;
11823;SDS011;5969;50.780;7.726;2023-05-10T01:00:23;2.45;;;2.28;;
11823;SDS011;5969;50.780;7.726;2023-05-10T01:02:50;2.70;;;2.50;;
11823;SDS011;5969;50.780;7.726;2023-05-10T01:05:20;2.70;;;2.50;;
11823;SDS011;5969;50.780;7.726;2023-05-10T01:07:47;3.08;;;2.80;;
11823;SDS011;5969;50.780;7.726;2023-05-10T01:10:14;3.78;;;3.20;;
11823;SDS011;5969;50.780;7.726;2023-05-10T01:12:44;3.47;;;3.28;;
11823;SDS011;5969;50.780;7.726;2023-05-10T01:15:12;5.78;;;3.95;;
11823;SDS011;5969;50.780;7.726;2023-05-10T01:17:42;4.13;;;3.75;;
11823;SDS011;5969;50.780;7.726;2023-05-10T01:20:11;3.90;;;3.55;;
11823;SDS011;5969;50.780;7.726;2023-05-10T01:22:45;3.80;;;3.50;;
11823;SDS011;5969;50.780;7.726;2023-05-10T01:25:32;3.90;;;3.60;;
11823;SDS011;5969;50.780;7.726;2023-05-10T01:28:20;4.10;;;3.50;;
11823;SDS011;5969;50.780;7.726;2023-05-10T01:33:50;3.85;;;3.55;;
11823;SDS011;5969;50.780;7.726;2023-05-10T01:36:23;4.15;;;3.75;;
11823;SDS011;5969;50.780;7.726;2023-05-10T01:38:58;4.28;;;3.97;;
11823;SDS011;5969;50.780;7.726;2023-05-10T01:41:30;5.25;;;4.07;;
11823;SDS011;5969;50.780;7.726;2023-05-10T01:44:09;4.07;;;3.78;;
11823;SDS011;5969;50.780;7.726;2023-05-10T01:46:42;5.07;;;4.65;;
11823;SDS011;5969;50.780;7.726;2023-05-10T01:49:13;5.30;;;4.80;;
11823;SDS011;5969;50.780;7.726;2023-05-10T01:51:51;5.03;;;4.28;;
11823;SDS011;5969;50.780;7.726;2023-05-10T01:54:21;5.15;;;4.70;;
11823;SDS011;5969;50.780;7.726;2023-05-10T01:56:50;5.40;;;4.80;;
11823;SDS011;5969;50.780;7.726;2023-05-10T01:59:19;5.78;;;5.28;;
11823;SDS011;5969;50.780;7.726;2023-05-10T02:01:46;8.75;;;6.20;;
11823;SDS011;5969;50.780;7.726;2023-05-10T02:04:16;7.63;;;5.72;;
11823;SDS011;5969;50.780;7.726;2023-05-10T02:06:45;5.80;;;5.28;;
11823;SDS011;5969;50.780;7.726;2023-05-10T02:09:13;7.00;;;6.45;;
11823;SDS011;5969;50.780;7.726;2023-05-10T02:11:41;6.80;;;6.20;;
11823;SDS011;5969;50.780;7.726;2023-05-10T02:14:09;6.75;;;6.15;;
11823;SDS011;5969;50.780;7.726;2023-05-10T02:16:37;7.28;;;6.68;;
11823;SDS011;5969;50.780;7.726;2023-05-10T02:19:05;9.38;;;7.18;;
11823;SDS011;5969;50.780;7.726;2023-05-10T02:21:36;8.13;;;7.32;;
11823;SDS011;5969;50.780;7.726;2023-05-10T02:24:05;7.13;;;6.53;;
11823;SDS011;5969;50.780;7.726;2023-05-10T02:26:33;7.88;;;7.07;;
11823;SDS011;5969;50.780;7.726;2023-05-10T02:29:02;7.53;;;6.93;;
11823;SDS011;5969;50.780;7.726;2023-05-10T02:31:30;7.97;;;7.18;;
11823;SDS011;5969;50.780;7.726;2023-05-10T02:33:58;7.45;;;6.70;;
11823;SDS011;5969;50.780;7.726;2023-05-10T02:36:26;7.03;;;6.43;;
11823;SDS011;5969;50.780;7.726;2023-05-10T02:38:55;7.47;;;6.78;;
11823;SDS011;5969;50.780;7.726;2023-05-10T02:41:23;7.97;;;7.10;;
11823;SDS011;5969;50.780;7.726;2023-05-10T02:43:51;6.90;;;6.30;;
11823;SDS011;5969;50.780;7.726;2023-05-10T02:46:22;7.93;;;6.80;;
11823;SDS011;5969;50.780;7.726;2023-05-10T02:48:49;7.55;;;6.85;;
11823;SDS011;5969;50.780;7.726;2023-05-10T02:51:16;7.03;;;6.43;;
11823;SDS011;5969;50.780;7.726;2023-05-10T02:53:46;7.00;;;6.40;;
11823;SDS011;5969;50.780;7.726;2023-05-10T02:56:18;6.97;;;6.28;;
11823;SDS011;5969;50.780;7.726;2023-05-10T02:58:50;6.38;;;5.78;;
11823;SDS011;5969;50.780;7.726;2023-05-10T03:01:16;5.82;;;5.32;;
11823;SDS011;5969;50.780;7.726;2023-05-10T03:03:43;6.68;;;6.07;;
11823;SDS011;5969;50.780;7.726;2023-05-10T03:06:10;6.10;;;5.18;;
11823;SDS011;5969;50.780;7.726;2023-05-10T03:08:36;4.75;;;4.35;;
11823;SDS011;5969;50.780;7.726;2023-05-10T03:11:14;6.93;;;5.40;;
11823;SDS011;5969;50.780;7.726;2023-05-10T03:13:53;6.30;;;4.97;;
11823;SDS011;5969;50.780;7.726;2023-05-10T03:16:29;5.55;;;5.05;;
11823;SDS011;5969;50.780;7.726;2023-05-10T03:19:06;6.40;;;5.13;;
11823;SDS011;5969;50.780;7.726;2023-05-10T03:21:37;4.90;;;4.50;;
11823;SDS011;5969;50.780;7.726;2023-05-10T03:24:07;4.90;;;4.50;;
11823;SDS011;5969;50.780;7.726;2023-05-10T03:26:38;6.57;;;4.90;;
11823;SDS011;5969;50.780;7.726;2023-05-10T03:29:06;5.88;;;5.38;;
11823;SDS011;5969;50.780;7.726;2023-05-10T03:31:34;5.47;;;4.95;;
11823;SDS011;5969;50.780;7.726;2023-05-10T03:34:00;5.40;;;4.88;;
11823;SDS011;5969;50.780;7.726;2023-05-10T03:36:27;5.60;;;4.93;;
11823;SDS011;5969;50.780;7.726;2023-05-10T03:38:54;4.88;;;4.47;;
11823;SDS011;5969;50.780;7.726;2023-05-10T03:41:21;5.40;;;4.90;;
11823;SDS011;5969;50.780;7.726;2023-05-10T03:43:49;5.22;;;4.80;;
11823;SDS011;5969;50.780;7.726;2023-05-10T03:46:15;5.30;;;4.80;;
11823;SDS011;5969;50.780;7.726;2023-05-10T03:48:42;5.50;;;4.97;;
11823;SDS011;5969;50.780;7.726;2023-05-10T03:51:09;4.20;;;3.90;;
11823;SDS011;5969;50.780;7.726;2023-05-10T03:53:36;4.22;;;3.83;;
11823;SDS011;5969;50.780;7.726;2023-05-10T03:56:03;5.65;;;4.40;;
11823;SDS011;5969;50.780;7.726;2023-05-10T03:58:30;4.35;;;3.25;;
11823;SDS011;5969;50.780;7.726;2023-05-10T04:00:58;12.13;;;4.68;;
11823;SDS011;5969;50.780;7.726;2023-05-10T04:03:25;4.55;;;3.90;;
11823;SDS011;5969;50.780;7.726;2023-05-10T04:05:57;4.25;;;3.75;;
11823;SDS011;5969;50.780;7.726;2023-05-10T04:08:26;4.70;;;3.80;;
11823;SDS011;5969;50.780;7.726;2023-05-10T04:10:53;3.72;;;3.42;;
11823;SDS011;5969;50.780;7.726;2023-05-10T04:13:20;3.88;;;3.58;;
11823;SDS011;5969;50.780;7.726;2023-05-10T04:15:47;4.10;;;3.80;;
11823;SDS011;5969;50.780;7.726;2023-05-10T04:18:15;3.67;;;3.38;;
11823;SDS011;5969;50.780;7.726;2023-05-10T04:20:42;3.67;;;3.38;;
11823;SDS011;5969;50.780;7.726;2023-05-10T04:23:09;3.60;;;3.30;;
11823;SDS011;5969;50.780;7.726;2023-05-10T04:25:35;3.70;;;2.75;;
11823;SDS011;5969;50.780;7.726;2023-05-10T04:28:02;3.03;;;2.72;;
11823;SDS011;5969;50.780;7.726;2023-05-10T04:30:29;3.30;;;3.05;;
11823;SDS011;5969;50.780;7.726;2023-05-10T04:32:56;3.40;;;3.08;;
11823;SDS011;5969;50.780;7.726;2023-05-10T04:35:24;3.75;;;3.13;;
11823;SDS011;5969;50.780;7.726;2023-05-10T04:37:52;3.47;;;3.17;;
11823;SDS011;5969;50.780;7.726;2023-05-10T04:40:18;4.40;;;3.10;;
11823;SDS011;5969;50.780;7.726;2023-05-10T04:42:45;4.45;;;4.05;;
11823;SDS011;5969;50.780;7.726;2023-05-10T04:45:12;3.90;;;3.50;;
11823;SDS011;5969;50.780;7.726;2023-05-10T04:47:39;4.05;;;3.75;;
11823;SDS011;5969;50.780;7.726;2023-05-10T04:50:07;4.00;;;3.33;;
11823;SDS011;5969;50.780;7.726;2023-05-10T04:52:35;4.15;;;3.38;;
11823;SDS011;5969;50.780;7.726;2023-05-10T04:55:02;2.88;;;2.67;;
11823;SDS011;5969;50.780;7.726;2023-05-10T04:57:29;4.88;;;3.40;;
11823;SDS011;5969;50.780;7.726;2023-05-10T04:59:56;3.22;;;2.92;;
11823;SDS011;5969;50.780;7.726;2023-05-10T05:02:23;3.45;;;3.15;;
11823;SDS011;5969;50.780;7.726;2023-05-10T05:04:50;3.60;;;3.05;;
11823;SDS011;5969;50.780;7.726;2023-05-10T05:07:16;3.80;;;3.33;;
11823;SDS011;5969;50.780;7.726;2023-05-10T05:09:45;3.80;;;3.50;;
11823;SDS011;5969;50.780;7.726;2023-05-10T05:12:11;4.05;;;3.67;;
11823;SDS011;5969;50.780;7.726;2023-05-10T05:14:39;4.18;;;3.78;;
11823;SDS011;5969;50.780;7.726;2023-05-10T05:17:06;4.40;;;4.00;;
11823;SDS011;5969;50.780;7.726;2023-05-10T05:19:33;4.40;;;3.63;;
11823;SDS011;5969;50.780;7.726;2023-05-10T05:22:00;4.43;;;4.03;;
11823;SDS011;5969;50.780;7.726;2023-05-10T05:24:28;4.97;;;4.57;;
11823;SDS011;5969;50.780;7.726;2023-05-10T05:26:56;5.15;;;4.70;;
11823;SDS011;5969;50.780;7.726;2023-05-10T05:29:23;5.55;;;5.05;;
11823;SDS011;5969;50.780;7.726;2023-05-10T05:31:50;5.88;;;5.28;;
11823;SDS011;5969;50.780;7.726;2023-05-10T05:34:16;5.93;;;5.07;;
11823;SDS011;5969;50.780;7.726;2023-05-10T05:36:45;7.00;;;5.78;;
11823;SDS011;5969;50.780;7.726;2023-05-10T05:39:12;5.85;;;5.28;;
11823;SDS011;5969;50.780;7.726;2023-05-10T05:41:38;6.03;;;5.47;;
11823;SDS011;5969;50.780;7.726;2023-05-10T05:44:07;5.68;;;5.15;;
11823;SDS011;5969;50.780;7.726;2023-05-10T05:46:33;6.60;;;5.13;;
11823;SDS011;5969;50.780;7.726;2023-05-10T05:49:00;6.88;;;6.18;;
11823;SDS011;5969;50.780;7.726;2023-05-10T05:51:28;7.72;;;6.35;;
11823;SDS011;5969;50.780;7.726;2023-05-10T05:53:55;8.95;;;6.65;;
11823;SDS011;5969;50.780;7.726;2023-05-10T05:56:21;6.63;;;6.03;;
11823;SDS011;5969;50.780;7.726;2023-05-10T05:58:49;8.07;;;7.30;;
11823;SDS011;5969;50.780;7.726;2023-05-10T06:01:17;7.05;;;6.45;;
11823;SDS011;5969;50.780;7.726;2023-05-10T06:03:44;7.47;;;6.78;;
11823;SDS011;5969;50.780;7.726;2023-05-10T06:06:11;11.25;;;8.15;;
11823;SDS011;5969;50.780;7.726;2023-05-10T06:08:37;8.07;;;7.38;;
11823;SDS011;5969;50.780;7.726;2023-05-10T06:11:04;8.25;;;7.45;;
11823;SDS011;5969;50.780;7.726;2023-05-10T06:13:31;12.35;;;8.55;;
11823;SDS011;5969;50.780;7.726;2023-05-10T06:16:00;8.68;;;7.78;;
11823;SDS011;5969;50.780;7.726;2023-05-10T06:18:28;8.50;;;7.70;;
11823;SDS011;5969;50.780;7.726;2023-05-10T06:20:55;7.95;;;7.25;;
11823;SDS011;5969;50.780;7.726;2023-05-10T06:23:22;9.05;;;8.25;;
11823;SDS011;5969;50.780;7.726;2023-05-10T06:25:50;7.72;;;6.75;;
11823;SDS011;5969;50.780;7.726;2023-05-10T06:28:17;8.35;;;7.55;;
11823;SDS011;5969;50.780;7.726;2023-05-10T06:30:44;8.98;;;8.07;;
11823;SDS011;5969;50.780;7.726;2023-05-10T06:33:11;7.70;;;7.00;;
11823;SDS011;5969;50.780;7.726;2023-05-10T06:35:39;7.55;;;6.85;;
11823;SDS011;5969;50.780;7.726;2023-05-10T06:38:05;7.28;;;6.57;;
11823;SDS011;5969;50.780;7.726;2023-05-10T06:40:32;6.63;;;6.03;;
11823;SDS011;5969;50.780;7.726;2023-05-10T06:42:59;5.47;;;4.80;;
11823;SDS011;5969;50.780;7.726;2023-05-10T06:45:26;4.28;;;3.88;;
11823;SDS011;5969;50.780;7.726;2023-05-10T06:47:52;3.05;;;2.72;;
11823;SDS011;5969;50.780;7.726;2023-05-10T06:50:20;3.17;;;2.88;;
11823;SDS011;5969;50.780;7.726;2023-05-10T06:52:48;3.30;;;3.00;;
11823;SDS011;5969;50.780;7.726;2023-05-10T06:55:15;4.25;;;3.30;;
11823;SDS011;5969;50.780;7.726;2023-05-10T06:57:41;4.22;;;3.08;;
11823;SDS011;5969;50.780;7.726;2023-05-10T07:00:08;5.03;;;3.35;;
11823;SDS011;5969;50.780;7.726;2023-05-10T07:02:35;4.32;;;3.70;;
11823;SDS011;5969;50.780;7.726;2023-05-10T07:05:03;7.82;;;7.13;;
11823;SDS011;5969;50.780;7.726;2023-05-10T07:07:30;10.43;;;8.13;;
11823;SDS011;5969;50.780;7.726;2023-05-10T07:09:58;10.93;;;9.55;;
11823;SDS011;5969;50.780;7.726;2023-05-10T07:12:25;12.88;;;11.20;;
11823;SDS011;5969;50.780;7.726;2023-05-10T07:14:52;13.88;;;12.23;;
11823;SDS011;5969;50.780;7.726;2023-05-10T07:17:19;13.43;;;12.00;;
11823;SDS011;5969;50.780;7.726;2023-05-10T07:19:46;14.02;;;12.63;;
11823;SDS011;5969;50.780;7.726;2023-05-10T07:22:13;15.20;;;13.65;;
11823;SDS011;5969;50.780;7.726;2023-05-10T07:24:40;15.70;;;13.55;;
11823;SDS011;5969;50.780;7.726;2023-05-10T07:27:08;15.27;;;13.68;;
11823;SDS011;5969;50.780;7.726;2023-05-10T07:29:35;14.15;;;12.50;;
11823;SDS011;5969;50.780;7.726;2023-05-10T07:32:02;16.42;;;13.95;;
11823;SDS011;5969;50.780;7.726;2023-05-10T07:34:29;14.23;;;12.73;;
11823;SDS011;5969;50.780;7.726;2023-05-10T07:36:57;14.93;;;12.90;;
11823;SDS011;5969;50.780;7.726;2023-05-10T07:39:25;15.00;;;13.38;;
11823;SDS011;5969;50.780;7.726;2023-05-10T07:41:52;14.02;;;12.27;;
11823;SDS011;5969;50.780;7.726;2023-05-10T07:44:20;15.50;;;13.75;;
11823;SDS011;5969;50.780;7.726;2023-05-10T07:46:47;14.27;;;12.50;;
11823;SDS011;5969;50.780;7.726;2023-05-10T07:49:14;12.90;;;11.55;;
11823;SDS011;5969;50.780;7.726;2023-05-10T07:51:40;13.07;;;11.77;;
11823;SDS011;5969;50.780;7.726;2023-05-10T07:54:08;12.23;;;11.02;;
11823;SDS011;5969;50.780;7.726;2023-05-10T07:56:34;12.77;;;11.23;;
11823;SDS011;5969;50.780;7.726;2023-05-10T07:59:02;11.82;;;10.70;;
11823;SDS011;5969;50.780;7.726;2023-05-10T08:01:31;10.85;;;9.73;;
11823;SDS011;5969;50.780;7.726;2023-05-10T08:03:59;12.75;;;10.68;;
11823;SDS011;5969;50.780;7.726;2023-05-10T08:06:26;12.38;;;11.05;;
11823;SDS011;5969;50.780;7.726;2023-05-10T08:08:55;13.32;;;10.10;;
11823;SDS011;5969;50.780;7.726;2023-05-10T08:11:22;11.50;;;10.50;;
11823;SDS011;5969;50.780;7.726;2023-05-10T08:13:50;12.57;;;10.00;;
11823;SDS011;5969;50.780;7.726;2023-05-10T08:16:17;10.98;;;9.88;;
11823;SDS011;5969;50.780;7.726;2023-05-10T08:18:46;10.27;;;9.27;;
11823;SDS011;5969;50.780;7.726;2023-05-10T08:21:14;12.10;;;8.60;;
11823;SDS011;5969;50.780;7.726;2023-05-10T08:23:41;10.20;;;9.20;;
11823;SDS011;5969;50.780;7.726;2023-05-10T08:26:08;9.50;;;8.55;;
11823;SDS011;5969;50.780;7.726;2023-05-10T08:28:35;10.05;;;9.05;;
11823;SDS011;5969;50.780;7.726;2023-05-10T08:31:02;9.43;;;8.45;;
11823;SDS011;5969;50.780;7.726;2023-05-10T08:33:28;9.02;;;8.13;;
11823;SDS011;5969;50.780;7.726;2023-05-10T08:35:57;8.63;;;7.70;;
11823;SDS011;5969;50.780;7.726;2023-05-10T08:38:23;8.32;;;7.53;;
11823;SDS011;5969;50.780;7.726;2023-05-10T08:40:50;9.45;;;8.07;;
11823;SDS011;5969;50.780;7.726;2023-05-10T08:43:23;9.93;;;7.82;;
11823;SDS011;5969;50.780;7.726;2023-05-10T08:45:53;9.02;;;7.63;;
11823;SDS011;5969;50.780;7.726;2023-05-10T08:48:21;8.68;;;7.25;;
11823;SDS011;5969;50.780;7.726;2023-05-10T08:50:49;7.65;;;6.90;;
11823;SDS011;5969;50.780;7.726;2023-05-10T08:53:21;7.82;;;6.95;;
11823;SDS011;5969;50.780;7.726;2023-05-10T08:55:51;6.53;;;5.63;;
11823;SDS011;5969;50.780;7.726;2023-05-10T08:58:18;6.65;;;5.18;;
11823;SDS011;5969;50.780;7.726;2023-05-10T09:00:46;6.28;;;5.22;;
11823;SDS011;5969;50.780;7.726;2023-05-10T09:03:15;5.13;;;4.55;;
11823;SDS011;5969;50.780;7.726;2023-05-10T09:05:44;5.05;;;4.57;;
11823;SDS011;5969;50.780;7.726;2023-05-10T09:08:11;5.32;;;4.82;;
11823;SDS011;5969;50.780;7.726;2023-05-10T09:10:42;6.10;;;4.82;;
11823;SDS011;5969;50.780;7.726;2023-05-10T09:13:12;6.95;;;4.85;;
11823;SDS011;5969;50.780;7.726;2023-05-10T09:15:40;9.07;;;4.80;;
11823;SDS011;5969;50.780;7.726;2023-05-10T09:18:07;7.57;;;4.72;;
11823;SDS011;5969;50.780;7.726;2023-05-10T09:20:33;5.10;;;4.60;;
11823;SDS011;5969;50.780;7.726;2023-05-10T09:23:00;5.07;;;3.80;;
11823;SDS011;5969;50.780;7.726;2023-05-10T09:25:27;3.47;;;3.17;;
11823;SDS011;5969;50.780;7.726;2023-05-10T09:27:55;4.82;;;3.38;;
11823;SDS011;5969;50.780;7.726;2023-05-10T09:30:26;3.30;;;3.00;;
11823;SDS011;5969;50.780;7.726;2023-05-10T09:32:54;4.88;;;3.10;;
11823;SDS011;5969;50.780;7.726;2023-05-10T09:35:22;3.90;;;3.20;;
11823;SDS011;5969;50.780;7.726;2023-05-10T09:37:50;5.15;;;3.13;;
11823;SDS011;5969;50.780;7.726;2023-05-10T09:40:21;2.95;;;2.63;;
11823;SDS011;5969;50.780;7.726;2023-05-10T09:42:53;5.10;;;2.60;;
11823;SDS011;5969;50.780;7.726;2023-05-10T09:45:24;3.50;;;2.60;;
11823;SDS011;5969;50.780;7.726;2023-05-10T09:47:53;3.53;;;2.65;;
11823;SDS011;5969;50.780;7.726;2023-05-10T09:50:20;3.58;;;2.65;;
11823;SDS011;5969;50.780;7.726;2023-05-10T09:52:48;3.10;;;2.42;;
11823;SDS011;5969;50.780;7.726;2023-05-10T09:55:17;2.47;;;2.28;;
11823;SDS011;5969;50.780;7.726;2023-05-10T09:57:45;3.05;;;2.35;;
11823;SDS011;5969;50.780;7.726;2023-05-10T10:00:15;2.10;;;1.90;;
11823;SDS011;5969;50.780;7.726;2023-05-10T10:02:47;3.28;;;2.42;;
11823;SDS011;5969;50.780;7.726;2023-05-10T10:05:20;3.38;;;2.67;;
11823;SDS011;5969;50.780;7.726;2023-05-10T10:07:46;2.30;;;2.10;;
11823;SDS011;5969;50.780;7.726;2023-05-10T10:10:15;3.58;;;2.05;;
11823;SDS011;5969;50.780;7.726;2023-05-10T10:12:42;2.15;;;1.95;;
11823;SDS011;5969;50.780;7.726;2023-05-10T10:15:09;1.90;;;1.70;;
11823;SDS011;5969;50.780;7.726;2023-05-10T10:17:37;3.45;;;1.80;;
11823;SDS011;5969;50.780;7.726;2023-05-10T10:20:07;1.88;;;1.77;;
11823;SDS011;5969;50.780;7.726;2023-05-10T10:22:34;1.42;;;1.33;;
11823;SDS011;5969;50.780;7.726;2023-05-10T10:25:02;5.43;;;1.73;;
11823;SDS011;5969;50.780;7.726;2023-05-10T10:27:33;2.28;;;1.90;;
11823;SDS011;5969;50.780;7.726;2023-05-10T10:30:18;2.22;;;1.35;;
11823;SDS011;5969;50.780;7.726;2023-05-10T10:32:58;2.10;;;1.83;;
11823;SDS011;5969;50.780;7.726;2023-05-10T10:35:34;2.00;;;1.80;;
11823;SDS011;5969;50.780;7.726;2023-05-10T10:38:02;3.15;;;2.05;;
11823;SDS011;5969;50.780;7.726;2023-05-10T10:40:30;4.75;;;2.03;;
11823;SDS011;5969;50.780;7.726;2023-05-10T10:42:57;2.33;;;1.95;;
11823;SDS011;5969;50.780;7.726;2023-05-10T10:45:24;1.80;;;1.70;;
11823;SDS011;5969;50.780;7.726;2023-05-10T10:50:51;1.20;;;1.10;;
11823;SDS011;5969;50.780;7.726;2023-05-10T10:53:23;1.35;;;1.20;;
11823;SDS011;5969;50.780;7.726;2023-05-10T10:55:56;1.27;;;1.15;;
11823;SDS011;5969;50.780;7.726;2023-05-10T10:58:31;1.25;;;1.15;;
11823;SDS011;5969;50.780;7.726;2023-05-10T11:01:09;1.45;;;1.15;;
11823;SDS011;5969;50.780;7.726;2023-05-10T11:03:37;2.40;;;1.40;;
11823;SDS011;5969;50.780;7.726;2023-05-10T11:06:06;2.55;;;1.20;;
11823;SDS011;5969;50.780;7.726;2023-05-10T11:08:34;1.33;;;1.23;;
11823;SDS011;5969;50.780;7.726;2023-05-10T11:11:08;2.53;;;1.70;;
11823;SDS011;5969;50.780;7.726;2023-05-10T11:13:39;2.42;;;1.45;;
11823;SDS011;5969;50.780;7.726;2023-05-10T11:16:14;2.40;;;1.40;;
11823;SDS011;5969;50.780;7.726;2023-05-10T11:18:52;1.92;;;1.67;;
11823;SDS011;5969;50.780;7.726;2023-05-10T11:21:26;1.50;;;1.40;;
11823;SDS011;5969;50.780;7.726;2023-05-10T11:23:53;2.45;;;1.58;;
11823;SDS011;5969;50.780;7.726;2023-05-10T11:26:22;3.03;;;1.60;;
11823;SDS011;5969;50.780;7.726;2023-05-10T11:28:50;4.35;;;1.48;;
11823;SDS011;5969;50.780;7.726;2023-05-10T11:31:18;2.00;;;1.70;;
11823;SDS011;5969;50.780;7.726;2023-05-10T11:33:46;1.88;;;1.77;;
11823;SDS011;5969;50.780;7.726;2023-05-10T11:36:15;3.33;;;2.08;;
11823;SDS011;5969;50.780;7.726;2023-05-10T11:38:45;2.33;;;1.90;;
11823;SDS011;5969;50.780;7.726;2023-05-10T11:41:12;1.63;;;1.52;;
11823;SDS011;5969;50.780;7.726;2023-05-10T11:43:39;1.40;;;1.30;;
11823;SDS011;5969;50.780;7.726;2023-05-10T11:46:07;4.88;;;2.30;;
11823;SDS011;5969;50.780;7.726;2023-05-10T11:48:36;3.53;;;1.98;;
11823;SDS011;5969;50.780;7.726;2023-05-10T11:51:04;2.38;;;2.17;;
11823;SDS011;5969;50.780;7.726;2023-05-10T11:53:31;3.58;;;2.70;;
11823;SDS011;5969;50.780;7.726;2023-05-10T11:56:03;3.08;;;2.78;;
11823;SDS011;5969;50.780;7.726;2023-05-10T11:58:31;4.05;;;3.05;;
11823;SDS011;5969;50.780;7.726;2023-05-10T12:00:58;4.95;;;3.35;;
11823;SDS011;5969;50.780;7.726;2023-05-10T12:03:25;3.70;;;3.40;;
11823;SDS011;5969;50.780;7.726;2023-05-10T12:05:53;4.28;;;3.13;;
11823;SDS011;5969;50.780;7.726;2023-05-10T12:08:21;4.32;;;3.90;;
11823;SDS011;5969;50.780;7.726;2023-05-10T12:10:50;3.83;;;3.08;;
11823;SDS011;5969;50.780;7.726;2023-05-10T12:13:18;5.18;;;3.67;;
11823;SDS011;5969;50.780;7.726;2023-05-10T12:15:47;3.67;;;3.13;;
11823;SDS011;5969;50.780;7.726;2023-05-10T12:18:13;5.07;;;3.10;;
11823;SDS011;5969;50.780;7.726;2023-05-10T12:20:41;4.22;;;3.42;;
11823;SDS011;5969;50.780;7.726;2023-05-10T12:23:08;4.70;;;4.20;;
11823;SDS011;5969;50.780;7.726;2023-05-10T12:25:36;5.95;;;4.55;;
11823;SDS011;5969;50.780;7.726;2023-05-10T12:28:04;6.53;;;4.97;;
11823;SDS011;5969;50.780;7.726;2023-05-10T12:30:34;5.03;;;4.47;;
11823;SDS011;5969;50.780;7.726;2023-05-10T12:33:06;6.03;;;5.28;;
11823;SDS011;5969;50.780;7.726;2023-05-10T12:35:43;6.07;;;5.38;;
11823;SDS011;5969;50.780;7.726;2023-05-10T12:38:26;6.80;;;5.20;;
11823;SDS011;5969;50.780;7.726;2023-05-10T12:40:55;5.50;;;4.95;;
11823;SDS011;5969;50.780;7.726;2023-05-10T12:43:23;7.22;;;5.70;;
11823;SDS011;5969;50.780;7.726;2023-05-10T12:45:51;6.55;;;5.45;;
11823;SDS011;5969;50.780;7.726;2023-05-10T12:48:18;7.20;;;6.13;;
11823;SDS011;5969;50.780;7.726;2023-05-10T12:50:45;8.85;;;5.40;;
11823;SDS011;5969;50.780;7.726;2023-05-10T12:53:12;7.55;;;5.88;;
11823;SDS011;5969;50.780;7.726;2023-05-10T12:55:40;7.93;;;6.25;;
11823;SDS011;5969;50.780;7.726;2023-05-10T12:58:07;7.53;;;5.78;;
11823;SDS011;5969;50.780;7.726;2023-05-10T13:00:33;6.25;;;5.65;;
11823;SDS011;5969;50.780;7.726;2023-05-10T13:03:04;6.80;;;5.63;;
11823;SDS011;5969;50.780;7.726;2023-05-10T13:05:31;8.52;;;6.43;;
11823;SDS011;5969;50.780;7.726;2023-05-10T13:07:58;6.97;;;6.18;;
11823;SDS011;5969;50.780;7.726;2023-05-10T13:10:25;7.15;;;5.72;;
11823;SDS011;5969;50.780;7.726;2023-05-10T13:12:52;7.18;;;5.90;;
11823;SDS011;5969;50.780;7.726;2023-05-10T13:15:19;6.68;;;5.57;;
11823;SDS011;5969;50.780;7.726;2023-05-10T13:17:46;5.93;;;5.43;;
11823;SDS011;5969;50.780;7.726;2023-05-10T13:20:17;7.07;;;5.65;;
11823;SDS011;5969;50.780;7.726;2023-05-10T13:22:44;6.65;;;5.40;;
11823;SDS011;5969;50.780;7.726;2023-05-10T13:25:11;7.05;;;5.85;;
11823;SDS011;5969;50.780;7.726;2023-05-10T13:27:38;6.93;;;6.20;;
11823;SDS011;5969;50.780;7.726;2023-05-10T13:30:06;7.35;;;6.03;;
11823;SDS011;5969;50.780;7.726;2023-05-10T13:32:34;6.40;;;5.63;;
11823;SDS011;5969;50.780;7.726;2023-05-10T13:35:01;6.68;;;6.00;;
11823;SDS011;5969;50.780;7.726;2023-05-10T13:37:29;6.93;;;5.57;;
11823;SDS011;5969;50.780;7.726;2023-05-10T13:42:49;6.88;;;6.18;;
11823;SDS011;5969;50.780;7.726;2023-05-10T13:45:16;6.68;;;6.07;;
11823;SDS011;5969;50.780;7.726;2023-05-10T13:47:43;6.32;;;5.55;;
11823;SDS011;5969;50.780;7.726;2023-05-10T13:50:10;7.05;;;5.88;;
11823;SDS011;5969;50.780;7.726;2023-05-10T13:52:40;6.22;;;5.63;;
11823;SDS011;5969;50.780;7.726;2023-05-10T13:55:07;8.85;;;6.38;;
11823;SDS011;5969;50.780;7.726;2023-05-10T13:57:37;6.53;;;5.88;;
11823;SDS011;5969;50.780;7.726;2023-05-10T14:00:04;6.85;;;5.95;;
11823;SDS011;5969;50.780;7.726;2023-05-10T14:02:35;6.45;;;5.70;;
11823;SDS011;5969;50.780;7.726;2023-05-10T14:05:03;7.95;;;5.95;;
11823;SDS011;5969;50.780;7.726;2023-05-10T14:07:31;6.28;;;5.68;;
11823;SDS011;5969;50.780;7.726;2023-05-10T14:10:03;6.47;;;5.68;;
11823;SDS011;5969;50.780;7.726;2023-05-10T14:12:31;6.15;;;5.55;;
11823;SDS011;5969;50.780;7.726;2023-05-10T14:14:57;6.13;;;5.53;;
11823;SDS011;5969;50.780;7.726;2023-05-10T14:17:24;6.28;;;5.68;;
11823;SDS011;5969;50.780;7.726;2023-05-10T14:19:52;7.40;;;5.47;;
11823;SDS011;5969;50.780;7.726;2023-05-10T14:22:19;6.75;;;5.78;;
11823;SDS011;5969;50.780;7.726;2023-05-10T14:24:46;6.95;;;5.32;;
11823;SDS011;5969;50.780;7.726;2023-05-10T14:27:14;6.20;;;5.57;;
11823;SDS011;5969;50.780;7.726;2023-05-10T14:29:41;9.90;;;6.30;;
11823;SDS011;5969;50.780;7.726;2023-05-10T14:32:08;6.63;;;5.93;;
11823;SDS011;5969;50.780;7.726;2023-05-10T14:34:35;8.05;;;6.65;;
11823;SDS011;5969;50.780;7.726;2023-05-10T14:37:02;7.65;;;6.85;;
11823;SDS011;5969;50.780;7.726;2023-05-10T14:39:29;8.95;;;6.65;;
11823;SDS011;5969;50.780;7.726;2023-05-10T14:41:56;10.38;;;7.00;;
11823;SDS011;5969;50.780;7.726;2023-05-10T14:47:04;8.38;;;7.40;;
11823;SDS011;5969;50.780;7.726;2023-05-10T14:49:31;9.88;;;6.65;;
11823;SDS011;5969;50.780;7.726;2023-05-10T14:52:00;8.32;;;7.32;;
11823;SDS011;5969;50.780;7.726;2023-05-10T14:54:28;9.00;;;7.70;;
11823;SDS011;5969;50.780;7.726;2023-05-10T14:56:55;7.15;;;5.97;;
11823;SDS011;5969;50.780;7.726;2023-05-10T14:59:21;7.55;;;5.22;;
11823;SDS011;5969;50.780;7.726;2023-05-10T15:01:49;6.38;;;4.57;;
11823;SDS011;5969;50.780;7.726;2023-05-10T15:04:16;4.60;;;4.15;;
11823;SDS011;5969;50.780;7.726;2023-05-10T15:06:43;5.15;;;4.32;;
11823;SDS011;5969;50.780;7.726;2023-05-10T15:09:10;6.50;;;5.10;;
11823;SDS011;5969;50.780;7.726;2023-05-10T15:11:36;5.75;;;5.15;;
11823;SDS011;5969;50.780;7.726;2023-05-10T15:14:03;6.57;;;5.00;;
11823;SDS011;5969;50.780;7.726;2023-05-10T15:16:31;4.60;;;3.97;;
11823;SDS011;5969;50.780;7.726;2023-05-10T15:18:59;4.32;;;3.70;;